Shirahamamaru — JG4872 — position and weather

sailwx.info

Track history (hours):
 
Tides and Currents Weather Stations Pressure Air Temp Water Temp Dewpoint Dewpoint Depression Visibility Wind Speed Wind Dir Waves Ship Positions

Shirahamamaru

Last reported at 2014-Oct-31 23:33 UTC. Time now 2014-Nov-01 00:31 UTC.
Position N 35°12' E 139°46'.

Length 79 m; draft 3.2 m.

Type: Passenger vessel. MMSI: 431000239.

Date/timePositionNaut miles runAvg speedWind from/ knotsBaromVisibWave heightAir tempDewpointWater temp
2014-Oct-31 23:33N 35°12' E 139°46'2 1.7
2014-Oct-31 22:31N 35°13' E 139°44'3 3.0
2014-Oct-31 21:33N 35°12' E 139°47'3 0.3
2014-Oct-31 10:25N 35°13' E 139°44'4 4.6
2014-Oct-31 09:32N 35°11' E 139°48'5 4.7
2014-Oct-31 08:29N 35°13' E 139°43'6 6.2
2014-Oct-31 07:33N 35°10' E 139°49'6 4.9
2014-Oct-31 06:23N 35°13' E 139°43'1 0.5
2014-Oct-31 04:29N 35°13' E 139°44'4 4.4
2014-Oct-31 03:31N 35°11' E 139°48'5 5.0
2014-Oct-31 02:30N 35°13' E 139°43'5 5.1
2014-Oct-31 01:31N 35°11' E 139°48'5 4.6
2014-Oct-31 00:25N 35°13' E 139°43'3 3.3
2014-Oct-30 23:33N 35°12' E 139°46'2 1.6
2014-Oct-30 22:31N 35°13' E 139°44'3 2.8
2014-Oct-30 21:33N 35°11' E 139°47'3 0.2
2014-Oct-30 10:26N 35°13' E 139°44'4 4.1
2014-Oct-30 09:33N 35°11' E 139°48'5 4.2
2014-Oct-30 08:25N 35°13' E 139°43'6 6.5
2014-Oct-30 07:33N 35°10' E 139°49'6 5.1
2014-Oct-30 06:27N 35°13' E 139°43'4 4.4
2014-Oct-30 05:33N 35°11' E 139°47'4 3.3
2014-Oct-30 04:21N 35°13' E 139°43'5 6.1
2014-Oct-30 03:32N 35°11' E 139°48'5 4.6
2014-Oct-30 02:26N 35°13' E 139°43'5 5.4
2014-Oct-30 01:33N 35°11' E 139°48'5 4.3
2014-Oct-30 00:27N 35°13' E 139°43'3 3.2
2014-Oct-29 23:34N 35°12' E 139°46'1 1.2
2014-Oct-29 22:34N 35°13' E 139°45'2 2.3
2014-Oct-29 21:33N 35°11' E 139°47'1 0.1
2014-Oct-29 10:31N 35°12' E 139°45'3 2.6
2014-Oct-29 09:32N 35°11' E 139°48'5 4.4
2014-Oct-29 08:25N 35°13' E 139°43'6 6.5
2014-Oct-29 07:32N 35°10' E 139°49'6 5.1
2014-Oct-29 06:25N 35°13' E 139°43'4 4.4
2014-Oct-29 05:33N 35°11' E 139°47'2 2.2
2014-Oct-29 04:33N 35°13' E 139°45'4 3.4
2014-Oct-29 03:31N 35°11' E 139°48'5 4.8
2014-Oct-29 02:26N 35°13' E 139°43'5 5.5
2014-Oct-29 01:32N 35°11' E 139°48'5 4.5
2014-Oct-29 00:24N 35°13' E 139°43'3 3.2
2014-Oct-28 23:33N 35°12' E 139°46'2 1.7
2014-Oct-28 22:30N 35°13' E 139°44'3 2.9
2014-Oct-28 21:33N 35°12' E 139°47'2 0.2
2014-Oct-28 10:26N 35°13' E 139°44'3 4.0
2014-Oct-28 09:33N 35°11' E 139°48'5 4.4
2014-Oct-28 08:31N 35°13' E 139°43'6 5.9
2014-Oct-28 07:33N 35°10' E 139°49'6 4.9
2014-Oct-28 06:22N 35°13' E 139°43'4 4.7
2014-Oct-28 05:32N 35°12' E 139°47'3 3.0
2014-Oct-28 04:29N 35°13' E 139°44'4 4.5
2014-Oct-28 03:31N 35°11' E 139°48'5 4.6
2014-Oct-28 02:23N 35°13' E 139°43'5 5.9
2014-Oct-28 01:32N 35°11' E 139°48'5 4.5
2014-Oct-28 00:25N 35°13' E 139°43'3 3.8
2014-Oct-27 23:33N 35°11' E 139°46'2 2.1
2014-Oct-27 22:33N 35°13' E 139°45'3 2.5
2014-Oct-27 21:33N 35°12' E 139°47'2 0.2
2014-Oct-27 10:33N 35°13' E 139°46'3 3.0
2014-Oct-27 09:33N 35°11' E 139°48'5 4.5
2014-Oct-27 08:31N 35°13' E 139°43'6 5.8
2014-Oct-27 07:33N 35°10' E 139°49'6 5.4
2014-Oct-27 06:31N 35°13' E 139°43'4 4.1
2014-Oct-27 05:33N 35°11' E 139°47'3 2.8
2014-Oct-27 04:31N 35°13' E 139°44'4 3.8
2014-Oct-27 03:33N 35°11' E 139°48'5 4.4
2014-Oct-27 02:31N 35°13' E 139°43'5 4.7
2014-Oct-27 01:33N 35°11' E 139°48'5 4.5
2014-Oct-27 00:31N 35°13' E 139°43'3 3.1
2014-Oct-26 23:33N 35°13' E 139°47'2 1.7
2014-Oct-26 22:32N 35°13' E 139°44'3 2.7
2014-Oct-26 21:33N 35°11' E 139°47'2 0.1
2014-Oct-26 10:32N 35°12' E 139°45'3 2.7
2014-Oct-26 09:32N 35°11' E 139°48'5 4.5
2014-Oct-26 08:26N 35°13' E 139°43'6 6.6
2014-Oct-26 07:33N 35°10' E 139°49'6 5.4
2014-Oct-26 06:30N 35°13' E 139°43'4 4.0
2014-Oct-26 05:33N 35°11' E 139°47'3 2.8
2014-Oct-26 04:31N 35°13' E 139°44'5 4.5
2014-Oct-26 03:27N 35°10' E 139°49'6 6.1
2014-Oct-26 02:33N 35°13' E 139°43'5 4.6
2014-Oct-26 01:33N 35°11' E 139°48'4 4.3
2014-Oct-26 00:33N 35°13' E 139°44'2 2.2
2014-Oct-25 23:33N 35°12' E 139°46'2 1.7
2014-Oct-25 22:31N 35°13' E 139°44'2 2.6
2014-Oct-25 21:34N 35°12' E 139°47'1 0.1
2014-Oct-25 10:33N 35°13' E 139°46'3 2.7
2014-Oct-25 09:32N 35°11' E 139°48'5 4.8
2014-Oct-25 08:31N 35°13' E 139°43'5 5.7
2014-Oct-25 07:33N 35°10' E 139°49'6 5.0
2014-Oct-25 06:27N 35°13' E 139°43'5 4.8
2014-Oct-25 05:29N 35°11' E 139°48'5 4.1
2014-Oct-25 04:23N 35°13' E 139°43'5 5.9
2014-Oct-25 03:32N 35°11' E 139°48'5 4.7
2014-Oct-25 02:30N 35°13' E 139°43'5 4.9
2014-Oct-25 01:33N 35°11' E 139°48'5 4.4
2014-Oct-25 00:31N 35°13' E 139°43'2 2.6
2014-Oct-24 23:33N 35°12' E 139°46'1 1.4
2014-Oct-24 22:32N 35°13' E 139°44'2 2.3
2014-Oct-24 21:34N 35°12' E 139°47'1 0.1
2014-Oct-24 10:31N 35°12' E 139°45'3 2.7
2014-Oct-24 09:33N 35°11' E 139°48'5 4.4
2014-Oct-24 08:31N 35°13' E 139°43'6 5.9
2014-Oct-24 07:33N 35°10' E 139°49'6 5.2
2014-Oct-24 06:26N 35°13' E 139°43'5 5.2
2014-Oct-24 05:26N 35°11' E 139°48'4 4.4
2014-Oct-24 04:31N 35°13' E 139°44'4 3.9
2014-Oct-24 03:33N 35°11' E 139°48'5 4.4
2014-Oct-24 02:29N 35°13' E 139°43'6 5.7
2014-Oct-24 01:28N 35°10' E 139°49'6 5.9
2014-Oct-24 00:31N 35°13' E 139°43'3 2.9
2014-Oct-23 23:33N 35°12' E 139°46'2 1.6
2014-Oct-23 22:32N 35°13' E 139°44'3 2.7
2014-Oct-23 21:33N 35°11' E 139°47'2 0.1
2014-Oct-23 10:31N 35°12' E 139°45'3 2.6
2014-Oct-23 09:33N 35°11' E 139°48'5 4.6
2014-Oct-23 08:32N 35°13' E 139°43'6 5.8
2014-Oct-23 07:32N 35°10' E 139°49'6 5.6
2014-Oct-23 06:32N 35°13' E 139°43'4 3.8
2014-Oct-23 05:32N 35°11' E 139°47'3 2.9
2014-Oct-23 04:32N 35°13' E 139°44'4 3.7
2014-Oct-23 03:33N 35°11' E 139°48'5 4.7
2014-Oct-23 02:33N 35°13' E 139°43'5 4.9
2014-Oct-23 01:33N 35°11' E 139°48'5 4.5
2014-Oct-23 00:29N 35°13' E 139°43'3 3.1
2014-Oct-22 23:34N 35°12' E 139°46'1 1.5
2014-Oct-22 22:33N 35°13' E 139°45'3 2.7
2014-Oct-22 21:32N 35°11' E 139°47'3 0.3
2014-Oct-22 10:28N 35°13' E 139°44'4 3.9
2014-Oct-22 09:33N 35°11' E 139°48'5 4.1
2014-Oct-22 08:24N 35°13' E 139°43'6 6.7
2014-Oct-22 07:33N 35°10' E 139°49'6 5.0
2014-Oct-22 06:25N 35°13' E 139°43'4 4.4
2014-Oct-22 05:33N 35°11' E 139°47'3 2.5
2014-Oct-22 04:31N 35°13' E 139°44'4 3.9
2014-Oct-22 03:33N 35°11' E 139°48'5 4.2
2014-Oct-22 02:22N 35°13' E 139°43'5 5.9
2014-Oct-22 01:32N 35°11' E 139°48'5 4.6
2014-Oct-22 00:28N 35°13' E 139°43'  
Track history (hours):
 
Tides and Currents Weather Stations Pressure Air Temp Water Temp Dewpoint Dewpoint Depression Visibility Wind Speed Wind Dir Waves Ship Positions

Shirahamamaru

Last reported at 2014-Oct-31 23:33 UTC. Time now 2014-Nov-01 00:31 UTC.
Position N 35°12' E 139°46'.

Length 79 m; draft 3.2 m.

Type: Passenger vessel. MMSI: 431000239.

Date/timePositionNaut miles runAvg speedWind from/ knotsBaromVisibWave heightAir tempDewpointWater temp
2014-Oct-31 23:33N 35°12' E 139°46'2 1.7
2014-Oct-31 22:31N 35°13' E 139°44'3 3.0
2014-Oct-31 21:33N 35°12' E 139°47'3 0.3
2014-Oct-31 10:25N 35°13' E 139°44'4 4.6
2014-Oct-31 09:32N 35°11' E 139°48'5 4.7
2014-Oct-31 08:29N 35°13' E 139°43'6 6.2
2014-Oct-31 07:33N 35°10' E 139°49'6 4.9
2014-Oct-31 06:23N 35°13' E 139°43'1 0.5
2014-Oct-31 04:29N 35°13' E 139°44'4 4.4
2014-Oct-31 03:31N 35°11' E 139°48'5 5.0
2014-Oct-31 02:30N 35°13' E 139°43'5 5.1
2014-Oct-31 01:31N 35°11' E 139°48'5 4.6
2014-Oct-31 00:25N 35°13' E 139°43'3 3.3
2014-Oct-30 23:33N 35°12' E 139°46'2 1.6
2014-Oct-30 22:31N 35°13' E 139°44'3 2.8
2014-Oct-30 21:33N 35°11' E 139°47'3 0.2
2014-Oct-30 10:26N 35°13' E 139°44'4 4.1
2014-Oct-30 09:33N 35°11' E 139°48'5 4.2
2014-Oct-30 08:25N 35°13' E 139°43'6 6.5
2014-Oct-30 07:33N 35°10' E 139°49'6 5.1
2014-Oct-30 06:27N 35°13' E 139°43'4 4.4
2014-Oct-30 05:33N 35°11' E 139°47'4 3.3
2014-Oct-30 04:21N 35°13' E 139°43'5 6.1
2014-Oct-30 03:32N 35°11' E 139°48'5 4.6
2014-Oct-30 02:26N 35°13' E 139°43'5 5.4
2014-Oct-30 01:33N 35°11' E 139°48'5 4.3
2014-Oct-30 00:27N 35°13' E 139°43'3 3.2
2014-Oct-29 23:34N 35°12' E 139°46'1 1.2
2014-Oct-29 22:34N 35°13' E 139°45'2 2.3
2014-Oct-29 21:33N 35°11' E 139°47'1 0.1
2014-Oct-29 10:31N 35°12' E 139°45'3 2.6
2014-Oct-29 09:32N 35°11' E 139°48'5 4.4
2014-Oct-29 08:25N 35°13' E 139°43'6 6.5
2014-Oct-29 07:32N 35°10' E 139°49'6 5.1
2014-Oct-29 06:25N 35°13' E 139°43'4 4.4
2014-Oct-29 05:33N 35°11' E 139°47'2 2.2
2014-Oct-29 04:33N 35°13' E 139°45'4 3.4
2014-Oct-29 03:31N 35°11' E 139°48'5 4.8
2014-Oct-29 02:26N 35°13' E 139°43'5 5.5
2014-Oct-29 01:32N 35°11' E 139°48'5 4.5
2014-Oct-29 00:24N 35°13' E 139°43'3 3.2
2014-Oct-28 23:33N 35°12' E 139°46'2 1.7
2014-Oct-28 22:30N 35°13' E 139°44'3 2.9
2014-Oct-28 21:33N 35°12' E 139°47'2 0.2
2014-Oct-28 10:26N 35°13' E 139°44'3 4.0
2014-Oct-28 09:33N 35°11' E 139°48'5 4.4
2014-Oct-28 08:31N 35°13' E 139°43'6 5.9
2014-Oct-28 07:33N 35°10' E 139°49'6 4.9
2014-Oct-28 06:22N 35°13' E 139°43'4 4.7
2014-Oct-28 05:32N 35°12' E 139°47'3 3.0
2014-Oct-28 04:29N 35°13' E 139°44'4 4.5
2014-Oct-28 03:31N 35°11' E 139°48'5 4.6
2014-Oct-28 02:23N 35°13' E 139°43'5 5.9
2014-Oct-28 01:32N 35°11' E 139°48'5 4.5
2014-Oct-28 00:25N 35°13' E 139°43'3 3.8
2014-Oct-27 23:33N 35°11' E 139°46'2 2.1
2014-Oct-27 22:33N 35°13' E 139°45'3 2.5
2014-Oct-27 21:33N 35°12' E 139°47'2 0.2
2014-Oct-27 10:33N 35°13' E 139°46'3 3.0
2014-Oct-27 09:33N 35°11' E 139°48'5 4.5
2014-Oct-27 08:31N 35°13' E 139°43'6 5.8
2014-Oct-27 07:33N 35°10' E 139°49'6 5.4
2014-Oct-27 06:31N 35°13' E 139°43'4 4.1
2014-Oct-27 05:33N 35°11' E 139°47'3 2.8
2014-Oct-27 04:31N 35°13' E 139°44'4 3.8
2014-Oct-27 03:33N 35°11' E 139°48'5 4.4
2014-Oct-27 02:31N 35°13' E 139°43'5 4.7
2014-Oct-27 01:33N 35°11' E 139°48'5 4.5
2014-Oct-27 00:31N 35°13' E 139°43'3 3.1
2014-Oct-26 23:33N 35°13' E 139°47'2 1.7
2014-Oct-26 22:32N 35°13' E 139°44'3 2.7
2014-Oct-26 21:33N 35°11' E 139°47'2 0.1
2014-Oct-26 10:32N 35°12' E 139°45'3 2.7
2014-Oct-26 09:32N 35°11' E 139°48'5 4.5
2014-Oct-26 08:26N 35°13' E 139°43'6 6.6
2014-Oct-26 07:33N 35°10' E 139°49'6 5.4
2014-Oct-26 06:30N 35°13' E 139°43'4 4.0
2014-Oct-26 05:33N 35°11' E 139°47'3 2.8
2014-Oct-26 04:31N 35°13' E 139°44'5 4.5
2014-Oct-26 03:27N 35°10' E 139°49'6 6.1
2014-Oct-26 02:33N 35°13' E 139°43'5 4.6
2014-Oct-26 01:33N 35°11' E 139°48'4 4.3
2014-Oct-26 00:33N 35°13' E 139°44'2 2.2
2014-Oct-25 23:33N 35°12' E 139°46'2 1.7
2014-Oct-25 22:31N 35°13' E 139°44'2 2.6
2014-Oct-25 21:34N 35°12' E 139°47'1 0.1
2014-Oct-25 10:33N 35°13' E 139°46'3 2.7
2014-Oct-25 09:32N 35°11' E 139°48'5 4.8
2014-Oct-25 08:31N 35°13' E 139°43'5 5.7
2014-Oct-25 07:33N 35°10' E 139°49'6 5.0
2014-Oct-25 06:27N 35°13' E 139°43'5 4.8
2014-Oct-25 05:29N 35°11' E 139°48'5 4.1
2014-Oct-25 04:23N 35°13' E 139°43'5 5.9
2014-Oct-25 03:32N 35°11' E 139°48'5 4.7
2014-Oct-25 02:30N 35°13' E 139°43'5 4.9
2014-Oct-25 01:33N 35°11' E 139°48'5 4.4
2014-Oct-25 00:31N 35°13' E 139°43'2 2.6
2014-Oct-24 23:33N 35°12' E 139°46'1 1.4
2014-Oct-24 22:32N 35°13' E 139°44'2 2.3
2014-Oct-24 21:34N 35°12' E 139°47'1 0.1
2014-Oct-24 10:31N 35°12' E 139°45'3 2.7
2014-Oct-24 09:33N 35°11' E 139°48'5 4.4
2014-Oct-24 08:31N 35°13' E 139°43'6 5.9
2014-Oct-24 07:33N 35°10' E 139°49'6 5.2
2014-Oct-24 06:26N 35°13' E 139°43'5 5.2
2014-Oct-24 05:26N 35°11' E 139°48'4 4.4
2014-Oct-24 04:31N 35°13' E 139°44'4 3.9
2014-Oct-24 03:33N 35°11' E 139°48'5 4.4
2014-Oct-24 02:29N 35°13' E 139°43'6 5.7
2014-Oct-24 01:28N 35°10' E 139°49'6 5.9
2014-Oct-24 00:31N 35°13' E 139°43'3 2.9
2014-Oct-23 23:33N 35°12' E 139°46'2 1.6
2014-Oct-23 22:32N 35°13' E 139°44'3 2.7
2014-Oct-23 21:33N 35°11' E 139°47'2 0.1
2014-Oct-23 10:31N 35°12' E 139°45'3 2.6
2014-Oct-23 09:33N 35°11' E 139°48'5 4.6
2014-Oct-23 08:32N 35°13' E 139°43'6 5.8
2014-Oct-23 07:32N 35°10' E 139°49'6 5.6
2014-Oct-23 06:32N 35°13' E 139°43'4 3.8
2014-Oct-23 05:32N 35°11' E 139°47'3 2.9
2014-Oct-23 04:32N 35°13' E 139°44'4 3.7
2014-Oct-23 03:33N 35°11' E 139°48'5 4.7
2014-Oct-23 02:33N 35°13' E 139°43'5 4.9
2014-Oct-23 01:33N 35°11' E 139°48'5 4.5
2014-Oct-23 00:29N 35°13' E 139°43'3 3.1
2014-Oct-22 23:34N 35°12' E 139°46'1 1.5
2014-Oct-22 22:33N 35°13' E 139°45'3 2.7
2014-Oct-22 21:32N 35°11' E 139°47'3 0.3
2014-Oct-22 10:28N 35°13' E 139°44'4 3.9
2014-Oct-22 09:33N 35°11' E 139°48'5 4.1
2014-Oct-22 08:24N 35°13' E 139°43'6 6.7
2014-Oct-22 07:33N 35°10' E 139°49'6 5.0
2014-Oct-22 06:25N 35°13' E 139°43'4 4.4
2014-Oct-22 05:33N 35°11' E 139°47'3 2.5
2014-Oct-22 04:31N 35°13' E 139°44'4 3.9
2014-Oct-22 03:33N 35°11' E 139°48'5 4.2
2014-Oct-22 02:22N 35°13' E 139°43'5 5.9
2014-Oct-22 01:32N 35°11' E 139°48'5 4.6
2014-Oct-22 00:28N 35°13' E 139°43'  

Dump ship's entire track history